EmailTwitter


Surface observations / France / LFBO (07630)

Regions: Quebec | Canada | USA | Europe | France | UK | Elsewhere
Station
Display
Info & Location for LFBO (07630) | Help decoding METAR

Weather Conditions observed on 2018/10/17 at 09:00 UTC at TOULOUSE/BLAGNAC, FR (LFBO)

Sky conditions: partly cloudy.

Temperature: 17.0 Celsius.

Dewpoint: 15.0 Celsius.

Relative Humidity: 88%

Humidex: 21.

Winds: Variable at 2 km/h or 1 knots.

Mean Sea level Pressure: 101.80 kilopascals.

Horizontal visibility: 3.73 statute miles or 5.97 kilometers.

Height of the Ceiling: 244 metres ( 800 feet ).

Coded METAR:

LFBO 170900Z AUTO VRB01KT 6000 BKN008 BKN094 17/15 Q1018 TEMPO 3000 BR BKN010=